Deerwood, MN (56444)

9:50 PM CST on November 21, 2017 (GMT -0600)
Ironton City limits | | Change Station

Elev 1258 ft 46.48 °N, 93.98 °W | Updated 13 seconds ago

Mostly Cloudy
Mostly Cloudy
15.6 °F
Feels Like 9 °F
N
3.8
Wind Variable Wind from WNW
Gusts 5.3 mph

Today
High -- | Low -- °F
--% Chance of Precip.
Yesterday
High -- | Low -- °F
Precip. -- in
Pressure 30.26 in
Visibility 10.0 miles
Clouds Overcast 2500 ft
Windchill 9 °F
Dew Point 11 °F
Humidity 81%
Rainfall 0.09 in
Snow Depth Not available.
7:26 AM 4:36 PM
Waxing Crescent, 12% visible
METAR KAIT 220334Z AUTO 30006KT 10SM OVC025 M09/M13 A3026 RMK AO2
Pressure 30.26 in
Visibility 10.0 miles
Clouds Overcast 2500 ft
Windchill 9 °F
Dew Point 11 °F
Humidity 81%
Rainfall 0.09 in
Snow Depth Not available.
7:26 AM 4:36 PM
Waxing Crescent, 12% visible
METAR KAIT 220334Z AUTO 30006KT 10SM OVC025 M09/M13 A3026 RMK AO2

Get Severe Weather Alerts

Thanks for signing up!

Be on the lookout for a verification email in your inbox.

You'll start receiving the daily forecast at 6 AM.

×

10-Day Weather Forecast

Almanac

Astronomy

Nov. 21, 2017 Rise Set
Actual Time
Civil Twilight
Nautical Twilight
Astronomical Twilight
Moon
Length of Visible Light
Length of Day
Tomorrow will be .
, % of the Moon is Illuminated

Today's Extremes

State Highs State Lows

Community

WunderPhotos

Category 6

Welcome to Category 6. This is the collective home for Weather Underground's featured writeups by Dr. Jeff Masters (right), Bob Henson (left), Chris Burt, and other regular contributors.

Nearby

Air Quality

  Air Quality AQ Index Pollutant
Not available.

Snow Depth

Station Depth Elevation

Earthquake Activity

City Distance Mag. Time & Date
Minimum magnitude displayed is 2.5.

Coastal Water Temperatures

Place Temperature

Stations

Nearby Weather Stations

Station Location Temp. Windchill Dew Point Humidity Wind Precip. Elev Updated Type
                   

Watches & Warnings

There are currently no watches in effect.